createdAt,value
2016-11-24T00:01:47.546Z,22.9
2016-11-24T00:06:51.640Z,22.8
2016-11-24T00:11:56.074Z,22.8
2016-11-24T00:17:00.503Z,22.8
2016-11-24T00:22:04.589Z,22.8
2016-11-24T00:27:09.016Z,22.8
2016-11-24T00:32:13.439Z,22.7
2016-11-24T00:37:17.534Z,22.7
2016-11-24T00:42:21.635Z,22.7
2016-11-24T00:47:25.726Z,22.7
2016-11-24T00:52:29.817Z,22.7
2016-11-24T00:57:33.912Z,22.7
2016-11-24T01:02:38.009Z,22.7
2016-11-24T01:07:42.445Z,22.6
2016-11-24T01:12:46.529Z,22.6
2016-11-24T01:17:50.626Z,22.6
2016-11-24T01:22:55.387Z,22.6
2016-11-24T01:27:59.483Z,22.6
2016-11-24T01:33:03.577Z,22.6
2016-11-24T01:38:08.004Z,22.6
2016-11-24T01:43:12.433Z,22.6
2016-11-24T01:48:16.525Z,22.5
2016-11-24T01:53:20.944Z,22.5
2016-11-24T01:58:25.044Z,22.5
2016-11-24T02:03:29.133Z,22.5
2016-11-24T02:08:33.225Z,22.5
2016-11-24T02:13:38.329Z,22.5
2016-11-24T02:18:42.757Z,22.4
2016-11-24T02:23:46.850Z,22.4
2016-11-24T02:28:50.946Z,22.4
2016-11-24T02:33:55.704Z,22.4
2016-11-24T02:39:00.145Z,22.4
2016-11-24T02:44:04.568Z,22.4
2016-11-24T02:49:09.005Z,22.4
2016-11-24T02:54:13.089Z,22.4
2016-11-24T02:59:17.515Z,22.4
2016-11-24T03:04:21.938Z,22.3
2016-11-24T03:09:26.361Z,22.3
2016-11-24T03:14:30.785Z,22.3
2016-11-24T03:19:35.551Z,22.3
2016-11-24T03:24:39.653Z,22.3
2016-11-24T03:29:43.738Z,22.3
2016-11-24T03:34:47.832Z,22.3
2016-11-24T03:39:52.925Z,22.3
2016-11-24T03:44:57.012Z,22.3
2016-11-24T03:50:01.115Z,22.3
2016-11-24T03:55:05.205Z,22.3
2016-11-24T04:00:09.632Z,22.3
2016-11-24T04:05:14.060Z,22.3
2016-11-24T04:10:18.817Z,22.3
2016-11-24T04:15:23.909Z,22.3
2016-11-24T04:20:28.339Z,22.2
2016-11-24T04:25:33.103Z,22.3
2016-11-24T04:30:37.525Z,22.3
2016-11-24T04:35:42.288Z,22.3
2016-11-24T04:40:46.381Z,22.3
2016-11-24T04:45:51.133Z,22.3
2016-11-24T04:50:55.222Z,22.3
2016-11-24T04:55:59.984Z,22.3
2016-11-24T05:01:04.417Z,22.3
2016-11-24T05:06:08.516Z,22.3
2016-11-24T05:11:12.941Z,22.3
2016-11-24T05:16:17.031Z,22.3
2016-11-24T05:21:21.120Z,22.4
2016-11-24T05:26:25.539Z,22.4
2016-11-24T05:31:29.626Z,22.3
2016-11-24T05:36:34.082Z,22.4
2016-11-24T05:41:38.499Z,22.4
2016-11-24T05:46:42.589Z,22.3
2016-11-24T05:51:47.015Z,22.3
2016-11-24T05:56:51.104Z,22.4
2016-11-24T06:01:55.190Z,22.4
2016-11-24T06:06:59.283Z,22.4
2016-11-24T06:12:03.373Z,22.5
2016-11-24T06:17:07.460Z,22.5
2016-11-24T06:22:12.223Z,22.5
2016-11-24T06:27:16.995Z,22.5
2016-11-24T06:32:21.110Z,22.6
2016-11-24T06:37:25.600Z,22.6
2016-11-24T06:42:29.731Z,22.6
2016-11-24T06:47:33.825Z,22.7
2016-11-24T06:52:38.263Z,22.7
2016-11-24T06:57:42.359Z,22.7
2016-11-24T07:02:46.814Z,22.7
2016-11-24T07:07:51.349Z,22.7
2016-11-24T07:12:55.438Z,22.7
2016-11-24T07:17:59.591Z,22.7
2016-11-24T07:23:03.692Z,22.6
2016-11-24T07:28:07.792Z,22.6
2016-11-24T07:33:12.217Z,22.6
2016-11-24T07:38:16.648Z,22.6
2016-11-24T07:43:21.093Z,22.6
2016-11-24T07:48:25.184Z,22.6
2016-11-24T07:53:29.607Z,22.6
2016-11-24T07:58:34.371Z,22.7
2016-11-24T08:03:38.465Z,22.7
2016-11-24T08:08:42.901Z,22.7
2016-11-24T08:13:46.993Z,22.8
2016-11-24T08:18:51.086Z,22.8
2016-11-24T08:23:55.510Z,22.8
2016-11-24T08:28:59.595Z,22.8
2016-11-24T08:34:03.686Z,22.8
2016-11-24T08:39:08.116Z,22.8
2016-11-24T08:44:12.211Z,22.9
2016-11-24T08:49:16.974Z,22.9
2016-11-24T08:54:21.402Z,22.9
2016-11-24T08:59:25.496Z,22.9
2016-11-24T09:04:29.925Z,22.9
2016-11-24T09:09:34.022Z,22.9
2016-11-24T09:14:38.118Z,22.9
2016-11-24T09:19:42.547Z,22.9
2016-11-24T09:24:46.972Z,22.9
2016-11-24T09:29:51.059Z,22.9
2016-11-24T09:34:55.492Z,22.9
2016-11-24T09:39:59.591Z,22.9
2016-11-24T09:45:04.012Z,22.9
2016-11-24T09:50:08.440Z,22.9
2016-11-24T09:55:12.538Z,23
2016-11-24T10:00:16.970Z,23
2016-11-24T10:05:21.073Z,23
2016-11-24T10:10:25.179Z,23
2016-11-24T10:15:29.945Z,23
2016-11-24T10:20:34.033Z,23
2016-11-24T10:25:38.472Z,23.1
2016-11-24T10:30:42.902Z,23
2016-11-24T10:35:46.994Z,23
2016-11-24T10:40:51.418Z,23
2016-11-24T10:45:55.515Z,23.1
2016-11-24T10:50:59.605Z,23.1
2016-11-24T10:56:04.037Z,23
2016-11-24T11:01:08.134Z,23
2016-11-24T11:06:12.228Z,23
2016-11-24T11:11:16.321Z,23
2016-11-24T11:16:20.757Z,23
2016-11-24T11:21:24.851Z,23
2016-11-24T11:26:29.286Z,23
2016-11-24T11:31:33.378Z,23
2016-11-24T11:36:37.817Z,23.1
2016-11-24T11:41:41.914Z,23.1
2016-11-24T11:46:46.043Z,23.1
2016-11-24T11:51:50.139Z,23.1
2016-11-24T11:56:54.573Z,23.1
2016-11-24T12:01:58.668Z,23.2
2016-11-24T12:07:02.764Z,23.2
2016-11-24T12:12:06.861Z,23.2
2016-11-24T12:17:11.297Z,23.2
2016-11-24T12:22:15.397Z,23.2
2016-11-24T12:27:19.490Z,23.3
2016-11-24T12:32:23.590Z,23.3
2016-11-24T12:37:28.028Z,23.3
2016-11-24T12:42:32.804Z,23.3
2016-11-24T12:47:36.909Z,23.3
2016-11-24T12:52:41.004Z,23.3
2016-11-24T12:57:45.440Z,23.3
2016-11-24T13:02:49.866Z,23.3
2016-11-24T13:07:53.964Z,23.3
2016-11-24T13:12:58.727Z,23.3
2016-11-24T13:18:02.825Z,23.3
2016-11-24T13:23:07.278Z,23.2
2016-11-24T13:28:11.377Z,23.2
2016-11-24T13:33:15.471Z,23.2
2016-11-24T13:38:20.232Z,23.2
2016-11-24T13:43:24.332Z,23.2
2016-11-24T13:48:28.428Z,23.2
2016-11-24T13:53:32.859Z,23.1
2016-11-24T13:58:36.952Z,23.1
2016-11-24T14:03:41.718Z,23.1
2016-11-24T14:08:45.810Z,23.1
2016-11-24T14:13:50.579Z,23.1
2016-11-24T14:18:55.356Z,23.1
2016-11-24T14:23:59.792Z,23.1
2016-11-24T14:29:04.223Z,23
2016-11-24T14:34:08.649Z,23
2016-11-24T14:39:12.745Z,23
2016-11-24T14:44:16.841Z,23
2016-11-24T14:49:21.272Z,23
2016-11-24T14:54:25.706Z,22.9
2016-11-24T14:59:29.801Z,22.9
2016-11-24T15:04:34.231Z,22.9
2016-11-24T15:09:39.504Z,22.9
2016-11-24T15:14:43.673Z,22.9
2016-11-24T15:19:47.799Z,22.9
2016-11-24T15:24:52.261Z,22.8
2016-11-24T15:29:56.721Z,22.8
2016-11-24T15:35:01.229Z,22.8
2016-11-24T15:40:05.710Z,22.8
2016-11-24T15:45:09.871Z,22.8
2016-11-24T15:50:14.011Z,22.8
2016-11-24T15:55:18.452Z,22.8
2016-11-24T16:00:22.629Z,22.8
2016-11-24T16:05:27.052Z,22.7
2016-11-24T16:10:31.155Z,22.7
2016-11-24T16:15:35.998Z,22.7
2016-11-24T16:20:40.475Z,22.7
2016-11-24T16:25:44.604Z,22.7
2016-11-24T16:30:48.706Z,22.7
2016-11-24T16:35:53.125Z,22.7
2016-11-24T16:40:57.220Z,22.7
2016-11-24T16:46:01.316Z,22.7
2016-11-24T16:51:05.752Z,22.7
2016-11-24T16:56:09.864Z,22.7
2016-11-24T17:01:14.317Z,22.7
2016-11-24T17:06:19.071Z,22.7
2016-11-24T17:11:23.297Z,22.7
2016-11-24T17:16:27.728Z,22.7
2016-11-24T17:21:32.157Z,22.7
2016-11-24T17:26:36.290Z,22.7
2016-11-24T17:31:40.451Z,22.7
2016-11-24T17:36:44.964Z,22.7
2016-11-24T17:41:49.422Z,22.7
2016-11-24T17:46:53.858Z,22.6
2016-11-24T17:51:58.619Z,22.7
2016-11-24T17:57:03.046Z,22.7
2016-11-24T18:02:07.856Z,22.7
2016-11-24T18:07:11.996Z,22.6
2016-11-24T18:12:16.097Z,22.6
2016-11-24T18:17:20.223Z,22.6
2016-11-24T18:22:24.355Z,22.6
2016-11-24T18:27:28.481Z,22.6
2016-11-24T18:32:32.926Z,22.5
2016-11-24T18:37:37.352Z,22.5
2016-11-24T18:42:41.439Z,22.5
2016-11-24T18:47:45.876Z,22.5
2016-11-24T18:52:49.968Z,22.5
2016-11-24T18:57:54.075Z,22.5
2016-11-24T19:02:58.163Z,22.4
2016-11-24T19:08:02.581Z,22.4
2016-11-24T19:13:07.015Z,22.4
2016-11-24T19:18:11.107Z,22.4
2016-11-24T19:23:15.871Z,22.4
2016-11-24T19:28:20.113Z,22.4
2016-11-24T19:33:24.216Z,22.4
2016-11-24T19:38:28.518Z,22.4
2016-11-24T19:43:32.610Z,22.4
2016-11-24T19:48:37.029Z,22.4
2016-11-24T19:53:41.122Z,22.4
2016-11-24T19:58:45.214Z,22.4
2016-11-24T20:03:49.665Z,22.3
2016-11-24T20:08:53.758Z,22.3
2016-11-24T20:13:58.190Z,22.3
2016-11-24T20:19:02.956Z,22.3
2016-11-24T20:24:07.082Z,22.3
2016-11-24T20:29:11.227Z,22.3
2016-11-24T20:34:15.744Z,22.3
2016-11-24T20:39:19.876Z,22.3
2016-11-24T20:44:24.343Z,22.4
2016-11-24T20:49:28.782Z,22.3
2016-11-24T20:54:33.211Z,22.3
2016-11-24T20:59:37.299Z,22.3
2016-11-24T21:04:42.063Z,22.3
2016-11-24T21:09:46.497Z,22.3
2016-11-24T21:14:50.591Z,22.3
2016-11-24T21:19:54.699Z,22.3
2016-11-24T21:24:58.831Z,22.3
2016-11-24T21:30:03.284Z,22.3
2016-11-24T21:35:07.380Z,22.3
2016-11-24T21:40:12.469Z,22.3
2016-11-24T21:45:16.577Z,22.3
2016-11-24T21:50:21.001Z,22.3
2016-11-24T21:55:25.100Z,22.3
2016-11-24T22:00:29.524Z,22.3
2016-11-24T22:05:33.617Z,22.3
2016-11-24T22:10:37.711Z,22.3
2016-11-24T22:15:41.801Z,22.3
2016-11-24T22:20:45.897Z,22.2
2016-11-24T22:25:50.655Z,22.2
2016-11-24T22:30:54.739Z,22.2
2016-11-24T22:35:58.836Z,22.2
2016-11-24T22:41:02.931Z,22.1
2016-11-24T22:46:07.026Z,22.1
2016-11-24T22:51:11.126Z,22.1
2016-11-24T22:56:15.572Z,22.1
2016-11-24T23:01:19.689Z,22.1
2016-11-24T23:06:23.783Z,22
2016-11-24T23:11:28.465Z,22
2016-11-24T23:16:32.572Z,22
2016-11-24T23:21:36.672Z,22
2016-11-24T23:26:41.095Z,22
2016-11-24T23:31:45.530Z,21.9
2016-11-24T23:36:49.630Z,21.9
2016-11-24T23:41:53.724Z,21.9
2016-11-24T23:46:57.823Z,21.9
2016-11-24T23:52:01.919Z,21.9
2016-11-24T23:57:06.352Z,21.9
